• Join FlightAware (Why Join?)
  • Login
  • US Flag 
10:32PM EST


 

Airport Tracker/Info


-or-


 

Live Flight TrackerFlight Track Log ✈ AAY891 ✈ 07-Jul-2014 ✈ KFWA - KPIE

Flight Track Log - Related Links

Times and Time Zones

All times are in EDT time to prevent confusion due to time zone crossing. See the AAY891 flight status page for this flight to view local times or setup timezone preferences in your user account.

Time Position Orientation Groundspeed Altitude Reporting Facility
EDT Latitude Longitude Course Direction KTS MPH feet Rate Location/Type
06:46PM 40.9092 -85.1900 143° Southeast 232 267 4,000  Level Chicago Center
06:47PM 40.8494 -85.1347 145° Southeast 254 292 5,900 2,220 Climbing Chicago Center
06:48PM 40.7808 -85.0714 145° Southeast 295 339 8,600 2,700 Climbing Chicago Center
06:49PM 40.6942 -84.9944 146° Southeast 310 357 11,500 2,460 Climbing Chicago Center
06:50PM 40.6225 -84.9314 146° Southeast 324 373 13,800 1,620 Climbing Chicago Center
06:51PM 40.7519 -85.1439 143° Southeast  Level Estimated
06:51PM 40.5489 -84.8403 137° Southeast 357 411 14,900  Level Chicago Center
06:52PM 40.4878 -84.7131 122° Southeast 411 473 16,000 1,200 Climbing Chicago Center
06:53PM 40.4364 -84.5514 113° Southeast 454 522 17,500 1,560 Climbing Chicago Center
06:54PM 40.3814 -84.3892 114° Southeast 478 550 19,300 1,860 Climbing Chicago Center
06:55PM 40.3133 -84.1928 114° Southeast 490 564 21,400 1,740 Climbing Chicago Center
06:56PM 40.2564 -84.0250 114° Southeast 498 573 22,900 1,260 Climbing Chicago Center
06:57PM 40.1981 -83.8569 114° Southeast 504 580 24,100 1,320 Climbing Chicago Center
06:58PM 40.1389 -83.6858 114° Southeast 514 592 25,700 1,500 Climbing Chicago Center
07:00PM 40.0614 -83.4639 114° Southeast 513 590 27,800 1,320 Climbing Indianapolis Center
07:01PM 39.9861 -83.3050 122° Southeast 512 589 29,000 540 Climbing Indianapolis Center
07:02PM 39.8600 -83.2161 152° Southeast 509 586 29,000  Level Indianapolis Center
07:03PM 39.7239 -83.1553 161° South 509 586 29,000  Level Indianapolis Center
07:05PM 39.4289 -83.0200 161° South 509 586 29,000  Level Indianapolis Center
07:06PM 39.2994 -82.9603 160° South 499 574 29,000  Level Indianapolis Center
07:07PM 39.1719 -82.9031 161° South 490 564 29,000  Level Indianapolis Center
07:08PM 39.0278 -82.9317 189° South 472 543 29,000  Level Indianapolis Center
07:09PM 38.8981 -82.9703 193° South 472 543 29,000  Level Indianapolis Center
07:10PM 38.7692 -83.0094 193° South 473 544 29,000  Level Indianapolis Center
07:11PM 38.6381 -83.0486 193° South 476 548 29,000  Level Indianapolis Center
07:12PM 38.5089 -83.0867 193° South 474 545 29,000  Level Indianapolis Center
07:13PM 38.3794 -83.1239 193° South 475 547 29,000  Level Indianapolis Center
07:14PM 38.2511 -83.1622 193° South 475 547 29,000  Level Indianapolis Center
07:15PM 38.0997 -83.2069 193° South 475 547 29,000  Level Indianapolis Center
07:16PM 37.9697 -83.2444 193° South 476 548 29,000  Level Indianapolis Center
07:17PM 37.8408 -83.2831 193° South 476 548 29,000  Level Indianapolis Center
07:18PM 37.7106 -83.3189 192° South 476 548 29,000  Level Indianapolis Center
07:19PM 37.5819 -83.3553 193° South 476 548 29,000  Level Indianapolis Center
07:20PM 37.4528 -83.3928 193° South 476 548 29,000  Level Indianapolis Center
07:21PM 37.3031 -83.4350 193° South 476 548 29,000  Level Indianapolis Center
07:22PM 37.1742 -83.4722 193° South 475 547 29,000  Level Indianapolis Center
07:23PM 37.0447 -83.5083 193° South 476 548 29,000  Level Indianapolis Center
07:25PM 36.9153 -83.5464 193° South 476 548 29,000  Level Indianapolis Center
07:26PM 36.7853 -83.5825 193° South 477 549 29,000  Level Indianapolis Center
07:27PM 36.6550 -83.6186 193° South 477 549 29,000  Level Indianapolis Center
07:28PM 36.5058 -83.6597 192° South 477 549 29,000  Level Indianapolis Center
07:29PM 36.3925 -83.6908 192° South 477 549 29,000  Level Indianapolis Center
07:30PM 36.2622 -83.7267 193° South 477 549 29,000  Level Indianapolis Center
07:31PM 36.1067 -83.7706 193° South 476 548 29,000  Level Indianapolis Center
07:32PM 36.0039 -83.8025 194° South 475 547 29,000  Level Atlanta Center
07:33PM 35.8744 -83.8364 192° South 475 547 29,000  Level Atlanta Center
07:34PM 35.7472 -83.8700 192° South 475 547 29,000  Level Atlanta Center
07:35PM 35.6203 -83.9111 195° South 470 541 29,000  Level Atlanta Center
07:36PM 35.4972 -83.9725 202° Southwest 476 548 29,000  Level Atlanta Center
07:37PM 35.3678 -84.0489 206° Southwest 482 555 29,000  Level Atlanta Center
07:38PM 35.2592 -84.1356 213° Southwest 475 547 29,000  Level Atlanta Center
07:39PM 35.1464 -84.2217 212° Southwest 475 547 29,000  Level Atlanta Center
07:40PM 35.0233 -84.2644 196° South 459 528 29,000  Level Atlanta Center
07:41PM 34.8939 -84.2742 184° South 459 528 29,000  Level Atlanta Center
07:42PM 34.7644 -84.2917 186° South 459 528 29,000  Level Atlanta Center
07:43PM 34.6308 -84.3089 186° South 472 543 29,000  Level Atlanta Center
07:44PM 34.4994 -84.3236 185° South 478 550 29,000  Level Atlanta Center
07:45PM 34.3678 -84.3433 187° South 483 556 29,000  Level Atlanta Center
07:46PM 34.2364 -84.3581 185° South 483 556 29,000  Level Atlanta Center
07:47PM 34.1006 -84.3775 187° South 483 556 29,000  Level Atlanta Center
07:48PM 33.9692 -84.3944 186° South 483 556 29,000  Level Atlanta Center
07:49PM 33.8375 -84.4114 186° South 478 550 29,000  Level Atlanta Center
07:50PM 33.7058 -84.4283 186° South 485 558 29,000  Level Atlanta Center
07:51PM 33.5869 -84.4378 184° South 479 551 29,000  Level Atlanta Center
07:52PM 33.4556 -84.4347 179° South 479 551 29,000  Level Atlanta Center
07:53PM 33.3261 -84.4342 180° South 479 551 29,000  Level Atlanta Center
07:54PM 33.1925 -84.4286 178° South 479 551 29,000  Level Atlanta Center
07:55PM 33.0631 -84.4256 179° South 479 551 29,000  Level Atlanta Center
07:56PM 32.9336 -84.4250 180° South 474 545 29,000  Level Atlanta Center
07:57PM 32.7897 -84.4194 178° South 474 545 29,000  Level Atlanta Center
07:58PM 32.6603 -84.4189 180° South 474 545 29,000  Level Atlanta Center
07:59PM 32.5289 -84.4158 179° South 474 545 29,000  Level Atlanta Center
08:00PM 32.3972 -84.4128 179° South 474 545 29,000  Level Atlanta Center
08:01PM 32.2636 -84.4097 179° South 480 552 29,000  Level Atlanta Center
08:02PM 32.0803 -84.4031 178° South 475 547 29,000  Level Jacksonville Center
08:03PM 31.9508 -84.4008 179° South 475 547 29,000  Level Jacksonville Center
08:04PM 31.8172 -84.4011 180° South 475 547 29,000  Level Jacksonville Center
08:05PM 31.6836 -84.3964 178° South 475 547 29,000  Level Jacksonville Center
08:06PM 31.5547 -84.3603 167° South 480 552 29,000  Level Jacksonville Center
08:07PM 31.4256 -84.3242 167° South 486 559 29,000  Level Jacksonville Center
08:08PM 31.2967 -84.2881 167° South 486 559 29,000  Level Jacksonville Center
08:09PM 31.1675 -84.2547 168° South 486 559 29,000  Level Jacksonville Center
08:10PM 31.0406 -84.2214 167° South 481 554 29,000  Level Jacksonville Center
08:11PM 30.9114 -84.1856 167° South 481 554 29,000  Level Jacksonville Center
08:12PM 30.7844 -84.1500 166° South 481 554 29,000  Level Jacksonville Center
08:13PM 30.6511 -84.1144 167° South 481 554 29,000  Level Jacksonville Center
08:14PM 30.5408 -84.0842 167° South 475 547 29,000  Level Jacksonville Center
08:15PM 30.4117 -84.0511 168° South 470 541 29,000  Level Jacksonville Center
08:16PM 30.2803 -84.0158 167° South 470 541 29,000  Level Jacksonville Center
08:17PM 30.1511 -83.9856 169° South 475 547 29,000 -180 Level Jacksonville Center
08:18PM 30.0261 -83.9506 166° South 470 541 28,700 -480 Descending Jacksonville Center
08:19PM 29.8969 -83.9156 167° South 470 541 28,100 -660 Descending Jacksonville Center
08:20PM 29.7597 -83.8567 160° South 470 541 27,400 -600 Descending Jacksonville Center
08:21PM 29.6433 -83.7839 151° Southeast 475 547 27,000 -240 Descending Jacksonville Center
08:22PM 29.5269 -83.7089 151° Southeast 475 547 27,000  Level Jacksonville Center
08:23PM 29.4106 -83.6339 151° Southeast 480 552 27,000 -300 Level Jacksonville Center
08:24PM 29.2939 -83.5569 150° Southeast 480 552 26,400 -900 Descending Jacksonville Center
08:25PM 29.1794 -83.4825 150° Southeast 480 552 25,200 -1,440 Descending Jacksonville Center
08:26PM 29.0631 -83.4106 152° Southeast 480 552 23,600 -1,680 Descending Jacksonville Center
08:27PM 28.9547 -83.3411 151° Southeast 470 541 21,900 -1,740 Descending Jacksonville Center
08:28PM 28.8486 -83.2742 151° Southeast 458 527 20,200 -1,740 Descending Jacksonville Center
08:29PM 28.7483 -83.2100 151° Southeast 438 504 18,500 -1,860 Descending Jacksonville Center
08:30PM 28.6547 -83.1506 151° Southeast 409 471 16,500 -2,040 Descending Jacksonville Center
08:31PM 28.5333 -83.0667 149° Southeast 370 426 13,700 -2,100 Descending Tampa TRACON
08:32PM 28.4500 -83.0167 152° Southeast 359 413 11,500 -2,160 Descending Tampa TRACON
08:33PM 28.3667 -82.9667 152° Southeast 349 402 9,600 -1,500 Descending Tampa TRACON
08:34PM 28.3000 -82.9167 147° Southeast 299 344 8,900 -1,380 Descending Tampa TRACON
08:35PM 28.2333 -82.8667 147° Southeast 276 318 7,000 -1,620 Descending Tampa TRACON
08:36PM 28.1667 -82.8333 156° South 268 308 5,700 -1,260 Descending Tampa TRACON
08:37PM 28.1167 -82.7833 139° Southeast 212 244 4,500 -1,260 Descending Tampa TRACON
08:38PM 28.0667 -82.7500 150° Southeast 170 196 3,000 -1,140 Descending Tampa TRACON
08:39PM 28.0333 -82.7167 139° Southeast 133 153 2,100 -900 Descending Tampa TRACON
08:40PM 28.0000 -82.7000 156° South 142 163 1,400 -780 Descending Tampa TRACON
08:41PM 27.9667 -82.7000 180° South 141 162 700 -720 Descending Tampa TRACON